createdAt,value
2022-10-05T00:00:00.246Z,101503.84
2022-10-05T00:03:10.852Z,101503.53
2022-10-05T00:06:14.364Z,101504.31
2022-10-05T00:09:20.881Z,101504.00
2022-10-05T00:12:25.435Z,101503.38
2022-10-05T00:15:29.291Z,101501.59
2022-10-05T00:18:32.893Z,101508.78
2022-10-05T00:21:35.445Z,101519.84
2022-10-05T00:24:38.285Z,101516.62
2022-10-05T00:27:41.119Z,101514.72
2022-10-05T00:30:44.205Z,101515.34
2022-10-05T00:33:48.057Z,101516.78
2022-10-05T00:36:50.945Z,101522.91
2022-10-05T00:39:53.677Z,101519.34
2022-10-05T00:43:16.142Z,101530.84
2022-10-05T00:46:38.897Z,101524.75
2022-10-05T00:50:03.658Z,101502.47
2022-10-05T00:53:12.604Z,101525.53
2022-10-05T00:56:54.589Z,101536.88
2022-10-05T01:00:09.542Z,101530.00
2022-10-05T01:03:28.402Z,101501.75
2022-10-05T01:06:55.267Z,101529.19
2022-10-05T01:10:12.518Z,101541.66
2022-10-05T01:13:26.298Z,101544.53
2022-10-05T01:16:56.126Z,101551.87
2022-10-05T01:20:13.878Z,101541.78
2022-10-05T01:23:45.214Z,101544.88
2022-10-05T01:27:06.242Z,101545.63
2022-10-05T01:30:18.281Z,101551.38
2022-10-05T01:33:55.043Z,101556.94
2022-10-05T01:37:09.921Z,101554.09
2022-10-05T01:40:31.383Z,101556.13
2022-10-05T01:43:53.010Z,101550.53
2022-10-05T01:47:03.299Z,101540.47
2022-10-05T01:50:24.388Z,101538.75
2022-10-05T01:53:45.507Z,101533.94
2022-10-05T01:57:27.741Z,101526.56
2022-10-05T02:00:35.554Z,101524.28
2022-10-05T02:04:06.290Z,101532.72
2022-10-05T02:07:17.075Z,101536.88
2022-10-05T02:10:38.385Z,101516.97
2022-10-05T02:13:44.226Z,101545.87
2022-10-05T02:16:49.377Z,101546.75
2022-10-05T02:20:02.880Z,101552.47
2022-10-05T02:23:14.505Z,101555.69
2022-10-05T02:26:19.128Z,101565.59
2022-10-05T02:29:26.439Z,101557.44
2022-10-05T02:32:37.769Z,101554.88
2022-10-05T02:35:40.755Z,101572.50
2022-10-05T02:39:13.441Z,101569.78
2022-10-05T02:42:32.660Z,101563.66
2022-10-05T02:46:01.426Z,101564.59
2022-10-05T02:49:13.796Z,101576.84
2022-10-05T02:52:26.780Z,101573.78
2022-10-05T02:55:50.023Z,101572.69
2022-10-05T02:59:15.745Z,101581.59
2022-10-05T03:02:24.731Z,101582.28
2022-10-05T03:06:05.433Z,101588.12
2022-10-05T03:09:09.943Z,101593.41
2022-10-05T03:12:43.963Z,101590.97
2022-10-05T03:16:15.024Z,101583.16
2022-10-05T03:20:02.686Z,101589.31
2022-10-05T03:23:20.303Z,101590.06
2022-10-05T03:26:30.909Z,101587.34
2022-10-05T03:30:02.915Z,101587.97
2022-10-05T03:33:22.732Z,101592.00
2022-10-05T03:36:42.845Z,101593.16
2022-10-05T03:40:07.614Z,101596.97
2022-10-05T03:43:23.485Z,101599.47
2022-10-05T03:47:00.030Z,101592.03
2022-10-05T03:50:23.268Z,101594.31
2022-10-05T03:53:32.243Z,101578.91
2022-10-05T03:56:41.901Z,101579.28
2022-10-05T04:00:03.393Z,101597.59
2022-10-05T04:03:22.050Z,101587.34
2022-10-05T04:06:47.427Z,101594.84
2022-10-05T04:09:53.173Z,101586.03
2022-10-05T04:13:21.551Z,101599.94
2022-10-05T04:16:54.272Z,101594.91
2022-10-05T04:20:04.053Z,101600.66
2022-10-05T04:23:16.002Z,101598.75
2022-10-05T04:26:26.364Z,101599.13
2022-10-05T04:29:53.421Z,101598.16
2022-10-05T04:32:59.210Z,101607.09
2022-10-05T04:36:24.301Z,101601.75
2022-10-05T04:39:49.924Z,101606.91
2022-10-05T04:42:55.608Z,101606.41
2022-10-05T04:46:04.532Z,101599.37
2022-10-05T04:49:26.278Z,101595.44
2022-10-05T04:52:47.404Z,101600.47
2022-10-05T04:56:14.660Z,101593.97
2022-10-05T04:59:36.593Z,101596.84
2022-10-05T05:02:55.064Z,101604.31
2022-10-05T05:06:18.522Z,101602.50
2022-10-05T05:09:50.003Z,101609.84
2022-10-05T05:13:31.661Z,101610.84
2022-10-05T05:16:37.826Z,101617.91
2022-10-05T05:19:44.198Z,101608.50
2022-10-05T05:22:59.894Z,101614.03
2022-10-05T05:26:40.657Z,101633.06
2022-10-05T05:30:03.840Z,101634.09
2022-10-05T05:33:18.248Z,101653.03
2022-10-05T05:36:46.437Z,101651.09
2022-10-05T05:40:00.945Z,101654.00
2022-10-05T05:43:42.348Z,101670.63
2022-10-05T05:47:10.117Z,101666.12
2022-10-05T05:50:30.365Z,101668.00
2022-10-05T05:53:40.784Z,101673.50
2022-10-05T05:57:11.138Z,101669.72
2022-10-05T06:00:14.660Z,101670.09
2022-10-05T06:03:39.756Z,101665.88
2022-10-05T06:06:50.379Z,101674.81
2022-10-05T06:10:16.933Z,101664.78
2022-10-05T06:13:34.471Z,101664.78
2022-10-05T06:16:47.514Z,101668.13
2022-10-05T06:20:02.470Z,101637.97
2022-10-05T06:23:34.072Z,101680.09
2022-10-05T06:27:31.708Z,101676.56
2022-10-05T06:31:03.147Z,101663.41
2022-10-05T06:34:14.796Z,101676.28
2022-10-05T06:37:44.308Z,101691.84
2022-10-05T06:41:24.038Z,101698.09
2022-10-05T06:44:53.525Z,101701.72
2022-10-05T06:48:24.338Z,101710.16
2022-10-05T06:51:39.118Z,101707.59
2022-10-05T06:54:52.170Z,101704.13
2022-10-05T06:58:34.684Z,101702.91
2022-10-05T07:02:03.768Z,101715.81
2022-10-05T07:05:45.031Z,101713.16
2022-10-05T07:08:57.015Z,101720.09
2022-10-05T07:12:30.129Z,101715.72
2022-10-05T07:15:53.667Z,101722.97
2022-10-05T07:18:59.660Z,101728.69
2022-10-05T07:22:33.340Z,101734.16
2022-10-05T07:26:09.462Z,101728.03
2022-10-05T07:29:45.780Z,101727.59
2022-10-05T07:33:16.182Z,101726.38
2022-10-05T07:36:53.720Z,101727.28
2022-10-05T07:40:20.730Z,101727.63
2022-10-05T07:44:03.307Z,101715.94
2022-10-05T07:47:15.359Z,101714.66
2022-10-05T07:50:48.188Z,101713.94
2022-10-05T07:54:18.489Z,101714.63
2022-10-05T07:57:44.620Z,101720.78
2022-10-05T08:01:02.422Z,101730.75
2022-10-05T08:04:17.919Z,101734.59
2022-10-05T08:07:20.571Z,101732.25
2022-10-05T08:10:37.708Z,101725.25
2022-10-05T08:13:47.268Z,101736.34
2022-10-05T08:16:55.428Z,101751.19
2022-10-05T08:20:45.790Z,101755.53
2022-10-05T08:23:54.130Z,101765.75
2022-10-05T08:27:15.516Z,101782.91
2022-10-05T08:30:21.024Z,101784.41
2022-10-05T08:33:28.776Z,101792.13
2022-10-05T08:36:54.240Z,101794.25
2022-10-05T08:40:21.729Z,101796.81
2022-10-05T08:43:39.593Z,101786.75
2022-10-05T08:47:07.211Z,101785.38
2022-10-05T08:50:19.569Z,101779.75
2022-10-05T08:54:01.036Z,101775.16
2022-10-05T08:57:04.439Z,101771.78
2022-10-05T09:00:39.398Z,101784.62
2022-10-05T09:04:01.239Z,101785.56
2022-10-05T09:07:42.082Z,101793.63
2022-10-05T09:10:57.217Z,101786.34
2022-10-05T09:14:18.711Z,101791.69
2022-10-05T09:18:02.650Z,101787.13
2022-10-05T09:21:35.133Z,101786.09
2022-10-05T09:24:48.248Z,101790.63
2022-10-05T09:28:04.916Z,101801.94
2022-10-05T09:31:16.347Z,101800.84
2022-10-05T09:35:06.968Z,101797.09
2022-10-05T09:38:33.636Z,101809.97
2022-10-05T09:41:42.140Z,101804.25
2022-10-05T09:45:15.568Z,101801.72
2022-10-05T09:48:56.987Z,101792.63
2022-10-05T09:52:09.101Z,101783.78
2022-10-05T09:55:50.130Z,101779.16
2022-10-05T09:59:46.136Z,101772.97
2022-10-05T10:02:55.254Z,101763.97
2022-10-05T10:06:26.770Z,101747.97
2022-10-05T10:09:48.686Z,101759.47
2022-10-05T10:13:27.171Z,101741.09
2022-10-05T10:16:58.373Z,101734.81
2022-10-05T10:20:01.678Z,101727.22
2022-10-05T10:23:18.044Z,101719.22
2022-10-05T10:26:45.695Z,101715.41
2022-10-05T10:30:26.296Z,101710.84
2022-10-05T10:33:45.767Z,101721.63
2022-10-05T10:37:10.924Z,101711.66
2022-10-05T10:40:23.419Z,101721.16
2022-10-05T10:43:29.522Z,101731.66
2022-10-05T10:46:39.429Z,101741.06
2022-10-05T10:50:28.573Z,101745.50
2022-10-05T10:53:34.271Z,101739.81
2022-10-05T10:56:53.153Z,101746.41
2022-10-05T11:00:17.888Z,101739.91
2022-10-05T11:03:59.511Z,101723.44
2022-10-05T11:07:17.292Z,101717.72
2022-10-05T11:10:32.131Z,101713.62
2022-10-05T11:14:26.192Z,101714.94
2022-10-05T11:18:06.199Z,101719.00
2022-10-05T11:21:34.232Z,101719.44
2022-10-05T11:25:23.376Z,101723.31
2022-10-05T11:28:36.874Z,101721.31
2022-10-05T11:32:05.841Z,101726.47
2022-10-05T11:35:20.877Z,101722.84
2022-10-05T11:38:58.495Z,101725.34
2022-10-05T11:42:25.626Z,101722.03
2022-10-05T11:45:49.495Z,101726.62
2022-10-05T11:49:23.344Z,101714.34
2022-10-05T11:52:50.427Z,101712.38
2022-10-05T11:56:11.591Z,101715.56
2022-10-05T11:59:37.591Z,101704.87
2022-10-05T12:03:09.354Z,101707.31
2022-10-05T12:06:49.292Z,101703.78
2022-10-05T12:10:17.499Z,101697.91
2022-10-05T12:13:42.181Z,101678.88
2022-10-05T12:16:54.053Z,101690.06
2022-10-05T12:20:25.084Z,101689.31
2022-10-05T12:23:33.659Z,101684.16
2022-10-05T12:26:51.604Z,101674.22
2022-10-05T12:30:03.424Z,101677.06
2022-10-05T12:33:17.655Z,101678.69
2022-10-05T12:36:59.202Z,101676.72
2022-10-05T12:40:06.400Z,101677.84
2022-10-05T12:43:39.800Z,101689.34
2022-10-05T12:47:27.277Z,101683.78
2022-10-05T12:50:39.483Z,101671.09
2022-10-05T12:53:48.444Z,101678.53
2022-10-05T12:56:59.360Z,101678.91
2022-10-05T13:00:10.126Z,101671.44
2022-10-05T13:03:27.691Z,101676.63
2022-10-05T13:06:53.674Z,101672.72
2022-10-05T13:09:59.173Z,101679.09
2022-10-05T13:13:20.852Z,101677.87
2022-10-05T13:16:37.355Z,101675.91
2022-10-05T13:19:45.855Z,101675.16
2022-10-05T13:22:57.415Z,101671.88
2022-10-05T13:26:16.707Z,101675.06
2022-10-05T13:29:44.612Z,101675.81
2022-10-05T13:32:50.130Z,101675.06
2022-10-05T13:36:11.514Z,101673.16
2022-10-05T13:39:27.177Z,101667.94
2022-10-05T13:43:12.646Z,101663.53
2022-10-05T13:46:28.562Z,101671.06
2022-10-05T13:49:48.256Z,101653.19
2022-10-05T13:53:39.460Z,101644.06
2022-10-05T13:56:46.543Z,101650.41
2022-10-05T13:59:55.583Z,101640.50
2022-10-05T14:03:00.974Z,101641.66
2022-10-05T14:06:12.197Z,101635.66
2022-10-05T14:09:34.200Z,101638.78
2022-10-05T14:12:40.814Z,101638.28
2022-10-05T14:15:57.308Z,101626.69
2022-10-05T14:19:06.295Z,101625.84
2022-10-05T14:22:16.119Z,101617.44
2022-10-05T14:25:19.881Z,101613.00
2022-10-05T14:28:39.088Z,101614.56
2022-10-05T14:31:59.851Z,101626.78
2022-10-05T14:35:12.894Z,101621.25
2022-10-05T14:38:36.211Z,101625.97
2022-10-05T14:41:47.663Z,101619.59
2022-10-05T14:45:18.212Z,101627.09
2022-10-05T14:48:21.124Z,101617.94
2022-10-05T14:51:33.048Z,101612.72
2022-10-05T14:55:00.981Z,101605.91
2022-10-05T14:58:16.100Z,101620.16
2022-10-05T15:01:28.108Z,101616.56
2022-10-05T15:04:31.896Z,101612.56
2022-10-05T15:07:41.835Z,101617.66
2022-10-05T15:10:52.729Z,101623.94
2022-10-05T15:13:56.455Z,101622.72
2022-10-05T15:17:15.102Z,101610.00
2022-10-05T15:20:47.533Z,101616.69
2022-10-05T15:23:54.428Z,101599.19
2022-10-05T15:27:00.176Z,101604.16
2022-10-05T15:30:11.491Z,101601.31
2022-10-05T15:33:37.184Z,101599.59
2022-10-05T15:36:47.896Z,101588.00
2022-10-05T15:40:00.261Z,101593.41
2022-10-05T15:43:10.578Z,101588.88
2022-10-05T15:46:20.302Z,101586.59
2022-10-05T15:49:42.131Z,101585.16
2022-10-05T15:52:58.982Z,101595.13
2022-10-05T15:56:16.889Z,101586.13
2022-10-05T15:59:30.625Z,101600.97
2022-10-05T16:02:52.033Z,101602.09
2022-10-05T16:06:37.310Z,101608.75
2022-10-05T16:10:07.682Z,101613.84
2022-10-05T16:13:37.088Z,101607.88
2022-10-05T16:16:39.660Z,101610.50
2022-10-05T16:19:52.519Z,101608.72
2022-10-05T16:23:10.957Z,101607.66
2022-10-05T16:26:14.684Z,101606.25
2022-10-05T16:29:27.804Z,101607.25
2022-10-05T16:32:37.331Z,101608.31
2022-10-05T16:35:48.389Z,101609.22
2022-10-05T16:38:59.149Z,101609.41
2022-10-05T16:42:26.352Z,101623.56
2022-10-05T16:45:45.665Z,101624.97
2022-10-05T16:49:13.089Z,101628.69
2022-10-05T16:52:20.410Z,101639.34
2022-10-05T16:55:36.979Z,101630.63
2022-10-05T16:58:39.788Z,101644.00
2022-10-05T17:02:15.257Z,101647.13
2022-10-05T17:05:59.250Z,101660.34
2022-10-05T17:09:15.270Z,101660.22
2022-10-05T17:12:20.943Z,101658.81
2022-10-05T17:15:25.577Z,101656.22
2022-10-05T17:19:06.085Z,101656.81
2022-10-05T17:22:21.551Z,101649.03
2022-10-05T17:25:34.232Z,101655.44
2022-10-05T17:28:41.124Z,101653.13
2022-10-05T17:32:00.848Z,101661.28
2022-10-05T17:35:19.033Z,101657.00
2022-10-05T17:38:35.449Z,101660.47
2022-10-05T17:41:38.860Z,101658.44
2022-10-05T17:44:41.683Z,101663.34
2022-10-05T17:48:05.599Z,101670.41
2022-10-05T17:51:47.907Z,101651.94
2022-10-05T17:55:28.655Z,101668.16
2022-10-05T17:58:31.411Z,101652.62
2022-10-05T18:01:39.812Z,101646.13
2022-10-05T18:04:50.653Z,101649.22
2022-10-05T18:08:11.625Z,101636.53
2022-10-05T18:11:35.292Z,101649.94
2022-10-05T18:14:56.837Z,101661.50
2022-10-05T18:18:34.543Z,101675.91
2022-10-05T18:21:38.580Z,101662.66
2022-10-05T18:24:56.237Z,101662.84
2022-10-05T18:28:20.373Z,101671.09
2022-10-05T18:31:37.724Z,101667.91
2022-10-05T18:34:58.630Z,101675.00
2022-10-05T18:38:33.319Z,101667.31
2022-10-05T18:42:07.060Z,101674.84
2022-10-05T18:49:51.919Z,101696.84
2022-10-05T18:53:23.877Z,101693.28
2022-10-05T18:56:36.808Z,101679.81
2022-10-05T18:59:53.271Z,101676.84
2022-10-05T19:03:11.043Z,101663.63
2022-10-05T19:06:38.125Z,101660.66
2022-10-05T19:10:05.839Z,101663.25
2022-10-05T19:13:30.084Z,101662.69
2022-10-05T19:16:51.273Z,101663.44
2022-10-05T19:20:00.307Z,101667.00
2022-10-05T19:23:13.858Z,101667.56
2022-10-05T19:26:44.169Z,101671.13
2022-10-05T19:30:08.637Z,101677.56
2022-10-05T19:33:30.567Z,101665.47
2022-10-05T19:36:52.704Z,101667.53
2022-10-05T19:40:07.227Z,101687.41
2022-10-05T19:43:12.261Z,101682.44
2022-10-05T19:46:32.923Z,101686.66
2022-10-05T19:49:49.258Z,101673.56
2022-10-05T19:53:04.032Z,101682.44
2022-10-05T19:56:21.783Z,101681.63
2022-10-05T19:59:31.446Z,101688.72
2022-10-05T20:02:37.543Z,101688.38
2022-10-05T20:05:44.643Z,101691.78
2022-10-05T20:08:49.605Z,101693.25
2022-10-05T20:11:54.628Z,101690.13
2022-10-05T20:15:26.540Z,101691.75
2022-10-05T20:18:58.396Z,101693.97
2022-10-05T20:22:29.958Z,101692.06
2022-10-05T20:25:33.063Z,101681.75
2022-10-05T20:28:35.789Z,101687.41
2022-10-05T20:31:38.845Z,101687.75
2022-10-05T20:34:43.964Z,101686.00
2022-10-05T20:37:46.803Z,101684.72
2022-10-05T20:40:51.119Z,101684.87
2022-10-05T20:43:55.837Z,101676.53
2022-10-05T20:47:01.096Z,101677.31
2022-10-05T20:50:09.944Z,101681.00
2022-10-05T20:53:13.171Z,101681.00
2022-10-05T20:56:16.153Z,101677.31
2022-10-05T20:59:18.967Z,101680.06
2022-10-05T21:02:21.956Z,101682.53
2022-10-05T21:05:24.582Z,101673.84
2022-10-05T21:08:27.797Z,101682.03
2022-10-05T21:11:30.558Z,101673.84
2022-10-05T21:14:34.665Z,101673.38
2022-10-05T21:17:40.029Z,101677.22
2022-10-05T21:20:48.680Z,101664.25
2022-10-05T21:23:51.273Z,101667.28
2022-10-05T21:26:56.834Z,101670.50
2022-10-05T21:29:59.611Z,101671.97
2022-10-05T21:33:02.561Z,101663.94
2022-10-05T21:36:05.287Z,101670.69
2022-10-05T21:39:08.134Z,101665.56
2022-10-05T21:42:10.698Z,101667.34
2022-10-05T21:45:13.687Z,101667.22
2022-10-05T21:48:17.598Z,101663.19
2022-10-05T21:51:23.941Z,101660.00
2022-10-05T21:54:26.962Z,101661.13
2022-10-05T21:57:29.893Z,101651.38
2022-10-05T22:00:32.840Z,101658.91
2022-10-05T22:03:35.802Z,101660.87
2022-10-05T22:06:38.555Z,101657.34
2022-10-05T22:09:41.375Z,101653.53
2022-10-05T22:12:46.336Z,101649.97
2022-10-05T22:15:49.240Z,101649.66
2022-10-05T22:18:53.671Z,101647.25
2022-10-05T22:21:56.565Z,101644.72
2022-10-05T22:24:59.430Z,101644.25
2022-10-05T22:28:03.354Z,101640.41
2022-10-05T22:31:07.876Z,101649.94
2022-10-05T22:34:10.944Z,101643.66
2022-10-05T22:37:14.017Z,101649.12
2022-10-05T22:40:22.283Z,101651.41
2022-10-05T22:43:27.020Z,101653.50
2022-10-05T22:46:30.404Z,101647.88
2022-10-05T22:49:33.084Z,101646.13
2022-10-05T22:52:36.399Z,101648.25
2022-10-05T22:55:39.079Z,101646.97
2022-10-05T22:58:43.381Z,101643.91
2022-10-05T23:01:46.198Z,101644.09
2022-10-05T23:04:49.227Z,101646.34
2022-10-05T23:07:51.975Z,101650.19
2022-10-05T23:11:04.359Z,101649.38
2022-10-05T23:14:07.273Z,101644.25
2022-10-05T23:17:10.126Z,101643.28
2022-10-05T23:20:12.904Z,101642.50
2022-10-05T23:23:15.724Z,101638.81
2022-10-05T23:26:21.081Z,101646.38
2022-10-05T23:29:24.012Z,101631.94
2022-10-05T23:32:26.797Z,101637.25
2022-10-05T23:35:29.646Z,101629.84
2022-10-05T23:38:32.611Z,101637.75
2022-10-05T23:41:35.569Z,101622.31
2022-10-05T23:44:38.140Z,101630.66
2022-10-05T23:47:41.183Z,101634.03
2022-10-05T23:50:46.949Z,101626.97
2022-10-05T23:53:49.948Z,101629.56
2022-10-05T23:56:52.553Z,101627.47
2022-10-05T23:59:56.426Z,101628.28
